sensor_id;sensor_type;location;lat;lon;timestamp;pressure;altitude;pressure_sealevel;temperature;humidity
1776;BME280;885;42.626;23.200;2023-04-06T00:00:06;164756.41;;;-1.41;100.00
1776;BME280;885;42.626;23.200;2023-04-06T00:02:34;164730.47;;;-1.51;100.00
1776;BME280;885;42.626;23.200;2023-04-06T00:05:01;164693.59;;;-1.65;100.00
1776;BME280;885;42.626;23.200;2023-04-06T00:07:27;164673.13;;;-1.72;100.00
1776;BME280;885;42.626;23.200;2023-04-06T00:09:56;164689.50;;;-1.66;100.00
1776;BME280;885;42.626;23.200;2023-04-06T00:12:23;164692.22;;;-1.65;100.00
1776;BME280;885;42.626;23.200;2023-04-06T00:14:50;164677.22;;;-1.71;100.00
1776;BME280;885;42.626;23.200;2023-04-06T00:17:17;164684.03;;;-1.68;100.00
1776;BME280;885;42.626;23.200;2023-04-06T00:19:44;164729.09;;;-1.51;100.00
1776;BME280;885;42.626;23.200;2023-04-06T00:22:11;164746.88;;;-1.45;100.00
1776;BME280;885;42.626;23.200;2023-04-06T00:24:37;164712.72;;;-1.57;100.00
1776;BME280;885;42.626;23.200;2023-04-06T00:27:06;164734.56;;;-1.49;100.00
1776;BME280;885;42.626;23.200;2023-04-06T00:29:32;164696.34;;;-1.64;100.00
1776;BME280;885;42.626;23.200;2023-04-06T00:31:59;164693.59;;;-1.65;100.00
1776;BME280;885;42.626;23.200;2023-04-06T00:34:26;164678.59;;;-1.70;100.00
1776;BME280;885;42.626;23.200;2023-04-06T00:36:53;164715.44;;;-1.56;100.00
1776;BME280;885;42.626;23.200;2023-04-06T00:39:20;164723.66;;;-1.53;100.00
1776;BME280;885;42.626;23.200;2023-04-06T00:41:50;164675.84;;;-1.71;100.00
1776;BME280;885;42.626;23.200;2023-04-06T00:44:19;164693.59;;;-1.65;100.00
1776;BME280;885;42.626;23.200;2023-04-06T00:46:46;164699.06;;;-1.63;100.00
1776;BME280;885;42.626;23.200;2023-04-06T00:49:12;164688.13;;;-1.67;100.00
1776;BME280;885;42.626;23.200;2023-04-06T00:51:39;164682.66;;;-1.69;100.00
1776;BME280;885;42.626;23.200;2023-04-06T00:54:06;164709.97;;;-1.58;100.00
1776;BME280;885;42.626;23.200;2023-04-06T00:56:33;164734.56;;;-1.49;100.00
1776;BME280;885;42.626;23.200;2023-04-06T00:59:00;164740.03;;;-1.47;100.00
1776;BME280;885;42.626;23.200;2023-04-06T01:01:28;164737.28;;;-1.48;100.00
1776;BME280;885;42.626;23.200;2023-04-06T01:03:58;164763.25;;;-1.39;100.00
1776;BME280;885;42.626;23.200;2023-04-06T01:06:24;164759.16;;;-1.40;99.95
1776;BME280;885;42.626;23.200;2023-04-06T01:08:51;164750.94;;;-1.43;100.00
1776;BME280;885;42.626;23.200;2023-04-06T01:11:18;164775.56;;;-1.34;100.00
1776;BME280;885;42.626;23.200;2023-04-06T01:13:46;164734.56;;;-1.49;100.00
1776;BME280;885;42.626;23.200;2023-04-06T01:16:13;164764.63;;;-1.38;99.65
1776;BME280;885;42.626;23.200;2023-04-06T01:18:41;164748.19;;;-1.44;99.88
1776;BME280;885;42.626;23.200;2023-04-06T01:21:08;164723.66;;;-1.53;100.00
1776;BME280;885;42.626;23.200;2023-04-06T01:23:43;164712.72;;;-1.57;100.00
1776;BME280;885;42.626;23.200;2023-04-06T01:26:10;164677.22;;;-1.71;100.00
1776;BME280;885;42.626;23.200;2023-04-06T01:28:37;164681.28;;;-1.69;100.00
1776;BME280;885;42.626;23.200;2023-04-06T01:31:04;164704.50;;;-1.61;100.00
1776;BME280;885;42.626;23.200;2023-04-06T01:33:31;164699.06;;;-1.63;100.00
1776;BME280;885;42.626;23.200;2023-04-06T01:35:58;164722.28;;;-1.54;100.00
1776;BME280;885;42.626;23.200;2023-04-06T01:38:25;164734.56;;;-1.49;100.00
1776;BME280;885;42.626;23.200;2023-04-06T01:40:54;164699.06;;;-1.63;100.00
1776;BME280;885;42.626;23.200;2023-04-06T01:43:21;164700.44;;;-1.62;100.00
1776;BME280;885;42.626;23.200;2023-04-06T01:45:48;164707.25;;;-1.59;100.00
1776;BME280;885;42.626;23.200;2023-04-06T01:48:15;164726.34;;;-1.52;100.00
1776;BME280;885;42.626;23.200;2023-04-06T01:50:42;164703.13;;;-1.61;100.00
1776;BME280;885;42.626;23.200;2023-04-06T01:53:08;164690.88;;;-1.66;100.00
1776;BME280;885;42.626;23.200;2023-04-06T01:55:35;164674.44;;;-1.72;100.00
1776;BME280;885;42.626;23.200;2023-04-06T01:58:03;164705.88;;;-1.60;100.00
1776;BME280;885;42.626;23.200;2023-04-06T02:00:30;164715.44;;;-1.56;100.00
1776;BME280;885;42.626;23.200;2023-04-06T02:02:57;164741.41;;;-1.47;100.00
1776;BME280;885;42.626;23.200;2023-04-06T02:05:24;164731.81;;;-1.50;100.00
1776;BME280;885;42.626;23.200;2023-04-06T02:07:51;164730.47;;;-1.51;100.00
1776;BME280;885;42.626;23.200;2023-04-06T02:10:18;164722.28;;;-1.54;100.00
1776;BME280;885;42.626;23.200;2023-04-06T02:12:45;164737.28;;;-1.48;100.00
1776;BME280;885;42.626;23.200;2023-04-06T02:15:14;164720.88;;;-1.54;100.00
1776;BME280;885;42.626;23.200;2023-04-06T02:17:41;164742.72;;;-1.46;100.00
1776;BME280;885;42.626;23.200;2023-04-06T02:20:09;164770.09;;;-1.36;100.00
1776;BME280;885;42.626;23.200;2023-04-06T02:22:36;164791.94;;;-1.28;100.00
1776;BME280;885;42.626;23.200;2023-04-06T02:25:05;164820.63;;;-1.18;100.00
1776;BME280;885;42.626;23.200;2023-04-06T02:27:32;164830.16;;;-1.14;100.00
1776;BME280;885;42.626;23.200;2023-04-06T02:29:59;164806.94;;;-1.23;99.87
1776;BME280;885;42.626;23.200;2023-04-06T02:32:27;164812.41;;;-1.21;100.00
1776;BME280;885;42.626;23.200;2023-04-06T02:34:54;164775.56;;;-1.34;100.00
1776;BME280;885;42.626;23.200;2023-04-06T02:37:21;164744.13;;;-1.46;100.00
1776;BME280;885;42.626;23.200;2023-04-06T02:39:49;164733.19;;;-1.50;100.00
1776;BME280;885;42.626;23.200;2023-04-06T02:42:16;164748.19;;;-1.44;100.00
1776;BME280;885;42.626;23.200;2023-04-06T02:44:43;164733.19;;;-1.50;100.00
1776;BME280;885;42.626;23.200;2023-04-06T02:47:10;164701.81;;;-1.62;100.00
1776;BME280;885;42.626;23.200;2023-04-06T02:49:38;164696.34;;;-1.64;100.00
1776;BME280;885;42.626;23.200;2023-04-06T02:52:05;164697.66;;;-1.63;100.00
1776;BME280;885;42.626;23.200;2023-04-06T02:54:32;164727.72;;;-1.52;100.00
1776;BME280;885;42.626;23.200;2023-04-06T02:56:58;164731.81;;;-1.50;100.00
1776;BME280;885;42.626;23.200;2023-04-06T02:59:25;164772.78;;;-1.35;100.00
1776;BME280;885;42.626;23.200;2023-04-06T03:01:52;164723.66;;;-1.53;100.00
1776;BME280;885;42.626;23.200;2023-04-06T03:04:19;164711.34;;;-1.58;100.00
1776;BME280;885;42.626;23.200;2023-04-06T03:06:49;164776.88;;;-1.34;100.00
1776;BME280;885;42.626;23.200;2023-04-06T03:09:16;164778.25;;;-1.33;100.00
1776;BME280;885;42.626;23.200;2023-04-06T03:11:43;164786.47;;;-1.30;100.00
1776;BME280;885;42.626;23.200;2023-04-06T03:14:10;164753.66;;;-1.42;100.00
1776;BME280;885;42.626;23.200;2023-04-06T03:16:36;164797.41;;;-1.26;100.00
1776;BME280;885;42.626;23.200;2023-04-06T03:19:03;164781.00;;;-1.32;100.00
1776;BME280;885;42.626;23.200;2023-04-06T03:21:30;164791.94;;;-1.28;100.00
1776;BME280;885;42.626;23.200;2023-04-06T03:23:59;164778.25;;;-1.33;100.00
1776;BME280;885;42.626;23.200;2023-04-06T03:26:25;164725.03;;;-1.53;100.00
1776;BME280;885;42.626;23.200;2023-04-06T03:28:52;164741.41;;;-1.47;100.00
1776;BME280;885;42.626;23.200;2023-04-06T03:31:19;164741.41;;;-1.47;100.00
1776;BME280;885;42.626;23.200;2023-04-06T03:33:46;164726.34;;;-1.52;100.00
1776;BME280;885;42.626;23.200;2023-04-06T03:36:13;164749.56;;;-1.44;100.00
1776;BME280;885;42.626;23.200;2023-04-06T03:38:40;164701.81;;;-1.62;100.00
1776;BME280;885;42.626;23.200;2023-04-06T03:41:08;164696.34;;;-1.64;100.00
1776;BME280;885;42.626;23.200;2023-04-06T03:43:35;164707.25;;;-1.59;100.00
1776;BME280;885;42.626;23.200;2023-04-06T03:46:02;164712.72;;;-1.57;100.00
1776;BME280;885;42.626;23.200;2023-04-06T03:48:28;164697.66;;;-1.63;100.00
1776;BME280;885;42.626;23.200;2023-04-06T03:50:55;164699.06;;;-1.63;100.00
1776;BME280;885;42.626;23.200;2023-04-06T03:53:22;164693.59;;;-1.65;100.00
1776;BME280;885;42.626;23.200;2023-04-06T03:55:49;164689.50;;;-1.66;100.00
1776;BME280;885;42.626;23.200;2023-04-06T03:58:17;164723.66;;;-1.53;100.00
1776;BME280;885;42.626;23.200;2023-04-06T04:00:44;164709.97;;;-1.58;100.00
1776;BME280;885;42.626;23.200;2023-04-06T04:03:11;164726.34;;;-1.52;100.00
1776;BME280;885;42.626;23.200;2023-04-06T04:05:37;164738.66;;;-1.48;100.00
1776;BME280;885;42.626;23.200;2023-04-06T04:08:04;164746.88;;;-1.45;100.00
1776;BME280;885;42.626;23.200;2023-04-06T04:10:31;164742.72;;;-1.46;100.00
1776;BME280;885;42.626;23.200;2023-04-06T04:12:58;164789.19;;;-1.29;100.00
1776;BME280;885;42.626;23.200;2023-04-06T04:15:26;164786.47;;;-1.30;100.00
1776;BME280;885;42.626;23.200;2023-04-06T04:17:53;164770.09;;;-1.36;100.00
1776;BME280;885;42.626;23.200;2023-04-06T04:20:20;164775.56;;;-1.34;100.00
1776;BME280;885;42.626;23.200;2023-04-06T04:22:46;164805.56;;;-1.23;100.00
1776;BME280;885;42.626;23.200;2023-04-06T04:25:15;164811.03;;;-1.21;100.00
1776;BME280;885;42.626;23.200;2023-04-06T04:27:42;164811.03;;;-1.21;100.00
1776;BME280;885;42.626;23.200;2023-04-06T04:30:09;164749.56;;;-1.44;100.00
1776;BME280;885;42.626;23.200;2023-04-06T04:32:37;164776.88;;;-1.34;100.00
1776;BME280;885;42.626;23.200;2023-04-06T04:35:05;164821.94;;;-1.17;99.96
1776;BME280;885;42.626;23.200;2023-04-06T04:37:32;164819.25;;;-1.18;100.00
1776;BME280;885;42.626;23.200;2023-04-06T04:40:00;164813.78;;;-1.20;99.88
1776;BME280;885;42.626;23.200;2023-04-06T04:42:26;164798.78;;;-1.26;99.88
1776;BME280;885;42.626;23.200;2023-04-06T04:44:54;164789.19;;;-1.29;100.00
1776;BME280;885;42.626;23.200;2023-04-06T04:47:21;164811.03;;;-1.21;100.00
1776;BME280;885;42.626;23.200;2023-04-06T04:49:49;164832.94;;;-1.13;100.00
1776;BME280;885;42.626;23.200;2023-04-06T04:52:16;164819.25;;;-1.18;99.30
1776;BME280;885;42.626;23.200;2023-04-06T04:54:42;164826.09;;;-1.16;99.35
1776;BME280;885;42.626;23.200;2023-04-06T04:57:09;164802.84;;;-1.24;100.00
1776;BME280;885;42.626;23.200;2023-04-06T04:59:36;164801.47;;;-1.25;100.00
1776;BME280;885;42.626;23.200;2023-04-06T05:02:03;164824.72;;;-1.16;99.91
1776;BME280;885;42.626;23.200;2023-04-06T05:04:30;164808.31;;;-1.22;100.00
1776;BME280;885;42.626;23.200;2023-04-06T05:07:05;164832.94;;;-1.13;99.79
1776;BME280;885;42.626;23.200;2023-04-06T05:09:32;164808.31;;;-1.22;100.00
1776;BME280;885;42.626;23.200;2023-04-06T05:11:59;164875.25;;;-0.98;100.00
1776;BME280;885;42.626;23.200;2023-04-06T05:14:26;164899.88;;;-0.89;98.85
1776;BME280;885;42.626;23.200;2023-04-06T05:16:53;164890.25;;;-0.92;98.04
1776;BME280;885;42.626;23.200;2023-04-06T05:19:20;164940.88;;;-0.73;98.86
1776;BME280;885;42.626;23.200;2023-04-06T05:21:47;164942.19;;;-0.73;98.62
1776;BME280;885;42.626;23.200;2023-04-06T05:24:15;164961.34;;;-0.66;97.97
1776;BME280;885;42.626;23.200;2023-04-06T05:26:42;164977.75;;;-0.60;96.88
1776;BME280;885;42.626;23.200;2023-04-06T05:29:10;164991.44;;;-0.55;97.10
1776;BME280;885;42.626;23.200;2023-04-06T05:31:37;165048.84;;;-0.34;97.95
1776;BME280;885;42.626;23.200;2023-04-06T05:34:03;165062.47;;;-0.29;97.13
1776;BME280;885;42.626;23.200;2023-04-06T05:36:30;165073.41;;;-0.25;95.87
1776;BME280;885;42.626;23.200;2023-04-06T05:38:58;165061.09;;;-0.29;94.96
1776;BME280;885;42.626;23.200;2023-04-06T05:41:26;164958.59;;;-0.67;96.51
1776;BME280;885;42.626;23.200;2023-04-06T05:43:56;164938.09;;;-0.74;97.64
1776;BME280;885;42.626;23.200;2023-04-06T05:46:23;164944.94;;;-0.72;98.60
1776;BME280;885;42.626;23.200;2023-04-06T05:48:49;164961.34;;;-0.66;97.79
1776;BME280;885;42.626;23.200;2023-04-06T05:51:16;164977.75;;;-0.60;97.25
1776;BME280;885;42.626;23.200;2023-04-06T05:53:43;164979.13;;;-0.59;96.65
1776;BME280;885;42.626;23.200;2023-04-06T05:56:10;164968.19;;;-0.63;97.30
1776;BME280;885;42.626;23.200;2023-04-06T05:58:38;165016.00;;;-0.46;96.81
1776;BME280;885;42.626;23.200;2023-04-06T06:01:05;165070.72;;;-0.26;95.64
1776;BME280;885;42.626;23.200;2023-04-06T06:03:32;164995.50;;;-0.53;96.34
1776;BME280;885;42.626;23.200;2023-04-06T06:06:02;165018.75;;;-0.45;96.01
1776;BME280;885;42.626;23.200;2023-04-06T06:08:29;165065.25;;;-0.28;95.49
1776;BME280;885;42.626;23.200;2023-04-06T06:10:56;165106.28;;;-0.13;95.53
1776;BME280;885;42.626;23.200;2023-04-06T06:13:24;165143.16;;;0.01;94.88
1776;BME280;885;42.626;23.200;2023-04-06T06:15:52;165147.25;;;0.03;94.05
1776;BME280;885;42.626;23.200;2023-04-06T06:18:19;165144.53;;;0.02;93.81
1776;BME280;885;42.626;23.200;2023-04-06T06:20:45;165125.38;;;-0.06;94.34
1776;BME280;885;42.626;23.200;2023-04-06T06:23:12;165092.56;;;-0.18;95.39
1776;BME280;885;42.626;23.200;2023-04-06T06:25:39;165093.97;;;-0.17;94.96
1776;BME280;885;42.626;23.200;2023-04-06T06:28:06;165145.94;;;0.02;94.93
1776;BME280;885;42.626;23.200;2023-04-06T06:30:33;165189.66;;;0.18;94.21
1776;BME280;885;42.626;23.200;2023-04-06T06:33:01;165160.94;;;0.08;93.68
1776;BME280;885;42.626;23.200;2023-04-06T06:35:28;165158.19;;;0.07;93.83
1776;BME280;885;42.626;23.200;2023-04-06T06:37:55;165202.00;;;0.23;93.88
1776;BME280;885;42.626;23.200;2023-04-06T06:40:22;165263.53;;;0.45;94.16
1776;BME280;885;42.626;23.200;2023-04-06T06:42:51;165218.41;;;0.29;93.17
1776;BME280;885;42.626;23.200;2023-04-06T06:45:18;165259.44;;;0.44;92.69
1776;BME280;885;42.626;23.200;2023-04-06T06:47:45;165297.72;;;0.58;91.37
1776;BME280;885;42.626;23.200;2023-04-06T06:50:14;165334.66;;;0.71;91.27
1776;BME280;885;42.626;23.200;2023-04-06T06:52:40;165323.72;;;0.67;90.89
1776;BME280;885;42.626;23.200;2023-04-06T06:55:09;165316.91;;;0.65;90.77
1776;BME280;885;42.626;23.200;2023-04-06T06:57:36;165143.16;;;0.01;92.75
1776;BME280;885;42.626;23.200;2023-04-06T07:00:04;165084.34;;;-0.21;93.63
1776;BME280;885;42.626;23.200;2023-04-06T07:02:34;165145.94;;;0.02;93.75
1776;BME280;885;42.626;23.200;2023-04-06T07:05:01;165158.19;;;0.07;94.50
1776;BME280;885;42.626;23.200;2023-04-06T07:07:29;165140.47;;;0.00;94.18
1776;BME280;885;42.626;23.200;2023-04-06T07:09:56;165210.16;;;0.26;93.42
1776;BME280;885;42.626;23.200;2023-04-06T07:12:23;165252.59;;;0.41;93.35
1776;BME280;885;42.626;23.200;2023-04-06T07:14:49;165145.94;;;0.02;93.76
1776;BME280;885;42.626;23.200;2023-04-06T07:17:16;165150.00;;;0.04;94.02
1776;BME280;885;42.626;23.200;2023-04-06T07:19:43;165208.78;;;0.25;94.39
1776;BME280;885;42.626;23.200;2023-04-06T07:22:10;165321.00;;;0.66;94.17
1776;BME280;885;42.626;23.200;2023-04-06T07:24:38;165368.84;;;0.84;92.83
1776;BME280;885;42.626;23.200;2023-04-06T07:27:05;165174.59;;;0.13;92.97
1776;BME280;885;42.626;23.200;2023-04-06T07:29:32;165207.47;;;0.25;93.79
1776;BME280;885;42.626;23.200;2023-04-06T07:31:59;165269.00;;;0.47;94.85
1776;BME280;885;42.626;23.200;2023-04-06T07:34:26;165311.38;;;0.63;94.04
1776;BME280;885;42.626;23.200;2023-04-06T07:36:53;165162.31;;;0.08;93.84
1776;BME280;885;42.626;23.200;2023-04-06T07:39:20;165217.00;;;0.28;94.62
1776;BME280;885;42.626;23.200;2023-04-06T07:41:48;165140.47;;;0.00;95.35
1776;BME280;885;42.626;23.200;2023-04-06T07:44:15;165100.75;;;-0.15;96.16
1776;BME280;885;42.626;23.200;2023-04-06T07:46:42;165166.41;;;0.10;95.56
1776;BME280;885;42.626;23.200;2023-04-06T07:49:10;165136.31;;;-0.02;95.23
1776;BME280;885;42.626;23.200;2023-04-06T07:51:37;165155.47;;;0.06;94.82
1776;BME280;885;42.626;23.200;2023-04-06T07:54:19;165212.94;;;0.27;94.40
1776;BME280;885;42.626;23.200;2023-04-06T07:56:48;165271.72;;;0.48;93.59
1776;BME280;885;42.626;23.200;2023-04-06T07:59:14;165311.38;;;0.63;93.17
1776;BME280;885;42.626;23.200;2023-04-06T08:01:41;165264.91;;;0.46;93.44
1776;BME280;885;42.626;23.200;2023-04-06T08:04:09;165297.72;;;0.58;93.57
1776;BME280;885;42.626;23.200;2023-04-06T08:06:35;165341.50;;;0.74;93.49
1776;BME280;885;42.626;23.200;2023-04-06T08:09:02;165374.34;;;0.86;92.80
1776;BME280;885;42.626;23.200;2023-04-06T08:11:29;165445.53;;;1.12;93.39
1776;BME280;885;42.626;23.200;2023-04-06T08:13:57;165467.41;;;1.20;89.87
1776;BME280;885;42.626;23.200;2023-04-06T08:16:24;165476.97;;;1.24;89.55
1776;BME280;885;42.626;23.200;2023-04-06T08:18:51;165455.09;;;1.16;88.10
1776;BME280;885;42.626;23.200;2023-04-06T08:21:18;165496.16;;;1.31;87.59
1776;BME280;885;42.626;23.200;2023-04-06T08:23:45;165468.78;;;1.21;86.21
1776;BME280;885;42.626;23.200;2023-04-06T08:26:12;165504.41;;;1.34;89.10
1776;BME280;885;42.626;23.200;2023-04-06T08:28:39;165527.69;;;1.42;87.95
1776;BME280;885;42.626;23.200;2023-04-06T08:31:07;165529.00;;;1.43;87.11
1776;BME280;885;42.626;23.200;2023-04-06T08:33:34;165576.94;;;1.60;88.70
1776;BME280;885;42.626;23.200;2023-04-06T08:36:09;165604.34;;;1.71;88.76
1776;BME280;885;42.626;23.200;2023-04-06T08:38:36;165445.53;;;1.12;88.02
1776;BME280;885;42.626;23.200;2023-04-06T08:41:07;165337.41;;;0.72;89.84
1776;BME280;885;42.626;23.200;2023-04-06T08:43:41;165279.94;;;0.51;89.78
1776;BME280;885;42.626;23.200;2023-04-06T08:46:10;165356.59;;;0.79;90.45
1776;BME280;885;42.626;23.200;2023-04-06T08:48:38;165371.63;;;0.85;89.89
1776;BME280;885;42.626;23.200;2023-04-06T08:51:06;165446.91;;;1.13;90.96
1776;BME280;885;42.626;23.200;2023-04-06T08:53:34;165500.25;;;1.32;89.49
1776;BME280;885;42.626;23.200;2023-04-06T08:56:02;165519.44;;;1.39;86.36
1776;BME280;885;42.626;23.200;2023-04-06T08:58:34;165557.75;;;1.53;88.83
1776;BME280;885;42.626;23.200;2023-04-06T09:01:04;165626.22;;;1.79;87.63
1776;BME280;885;42.626;23.200;2023-04-06T09:03:37;165634.47;;;1.82;83.53
1776;BME280;885;42.626;23.200;2023-04-06T09:06:05;165652.28;;;1.88;82.02
1776;BME280;885;42.626;23.200;2023-04-06T09:08:32;165630.31;;;1.80;82.18
1776;BME280;885;42.626;23.200;2023-04-06T09:11:00;165609.81;;;1.73;84.57
1776;BME280;885;42.626;23.200;2023-04-06T09:13:27;165490.69;;;1.29;86.42
1776;BME280;885;42.626;23.200;2023-04-06T09:16:01;165538.63;;;1.46;86.85
1776;BME280;885;42.626;23.200;2023-04-06T09:18:28;165592.00;;;1.66;85.18
1776;BME280;885;42.626;23.200;2023-04-06T09:21:02;165634.47;;;1.82;84.95
1776;BME280;885;42.626;23.200;2023-04-06T09:23:29;165635.84;;;1.82;83.47
1776;BME280;885;42.626;23.200;2023-04-06T09:26:06;165715.31;;;2.11;83.22
1776;BME280;885;42.626;23.200;2023-04-06T09:28:47;165618.03;;;1.76;81.88
1776;BME280;885;42.626;23.200;2023-04-06T09:31:15;165560.53;;;1.54;83.18
1776;BME280;885;42.626;23.200;2023-04-06T09:33:45;165571.47;;;1.58;83.27
1776;BME280;885;42.626;23.200;2023-04-06T09:36:14;165644.03;;;1.85;84.45
1776;BME280;885;42.626;23.200;2023-04-06T09:38:52;165681.06;;;1.99;81.69
1776;BME280;885;42.626;23.200;2023-04-06T09:41:23;165719.25;;;2.14;79.97
1776;BME280;885;42.626;23.200;2023-04-06T09:43:51;165768.59;;;2.32;79.11
1776;BME280;885;42.626;23.200;2023-04-06T09:46:20;165363.00;;;2.17;78.49
1776;BME280;885;42.626;23.200;2023-04-06T09:48:48;165465.53;;;2.55;77.98
1776;BME280;885;42.626;23.200;2023-04-06T09:51:18;165944.00;;;2.96;78.75
1776;BME280;885;42.626;23.200;2023-04-06T09:53:48;166044.06;;;3.33;76.08
1776;BME280;885;42.626;23.200;2023-04-06T09:56:22;165756.91;;;3.62;76.17
1776;BME280;885;42.626;23.200;2023-04-06T09:58:56;165451.59;;;3.85;74.06
1776;BME280;885;42.626;23.200;2023-04-06T10:01:26;165506.22;;;4.05;73.60
1776;BME280;885;42.626;23.200;2023-04-06T10:03:56;165159.72;;;4.13;73.91
1776;BME280;885;42.626;23.200;2023-04-06T10:06:31;164443.34;;;4.19;72.94
1776;BME280;885;42.626;23.200;2023-04-06T10:09:02;164058.84;;;4.13;72.81
1776;BME280;885;42.626;23.200;2023-04-06T10:11:29;163687.88;;;4.11;73.16
1776;BME280;885;42.626;23.200;2023-04-06T10:13:57;162544.53;;;3.95;71.39
1776;BME280;885;42.626;23.200;2023-04-06T10:16:25;162169.84;;;3.92;71.41
1776;BME280;885;42.626;23.200;2023-04-06T10:18:56;162172.53;;;3.93;72.02
1776;BME280;885;42.626;23.200;2023-04-06T10:21:25;161861.97;;;4.14;70.76
1776;BME280;885;42.626;23.200;2023-04-06T10:23:58;160718.25;;;3.97;69.49
1776;BME280;885;42.626;23.200;2023-04-06T10:26:25;160730.16;;;4.02;70.71
1776;BME280;885;42.626;23.200;2023-04-06T10:28:52;160744.72;;;4.08;71.22
1776;BME280;885;42.626;23.200;2023-04-06T10:31:29;159096.25;;;3.38;71.57
1776;BME280;885;42.626;23.200;2023-04-06T10:33:56;159467.56;;;3.40;73.16
1776;BME280;885;42.626;23.200;2023-04-06T10:36:24;159891.66;;;3.62;72.46
1776;BME280;885;42.626;23.200;2023-04-06T10:38:58;160289.59;;;3.74;73.19
1776;BME280;885;42.626;23.200;2023-04-06T10:41:32;159949.63;;;3.84;72.91
1776;BME280;885;42.626;23.200;2023-04-06T10:43:59;159570.16;;;3.79;72.34
1776;BME280;885;42.626;23.200;2023-04-06T10:46:27;159182.81;;;3.71;72.59
1776;BME280;885;42.626;23.200;2023-04-06T10:48:55;159591.19;;;3.87;72.56
1776;BME280;885;42.626;23.200;2023-04-06T10:51:25;159214.34;;;3.83;71.98
1776;BME280;885;42.626;23.200;2023-04-06T10:53:54;158855.91;;;3.86;71.31
1776;BME280;885;42.626;23.200;2023-04-06T10:56:24;159258.97;;;4.00;72.52
1776;BME280;885;42.626;23.200;2023-04-06T10:58:54;157645.44;;;3.43;72.29
1776;BME280;885;42.626;23.200;2023-04-06T11:01:22;156407.25;;;2.88;73.01
1776;BME280;885;42.626;23.200;2023-04-06T11:03:51;157168.13;;;2.99;74.58
1776;BME280;885;42.626;23.200;2023-04-06T11:06:19;158351.25;;;3.33;74.64
1776;BME280;885;42.626;23.200;2023-04-06T11:08:46;158820.59;;;3.72;73.04
1776;BME280;885;42.626;23.200;2023-04-06T11:11:14;158129.91;;;3.88;70.61
1776;BME280;885;42.626;23.200;2023-04-06T11:13:48;158193.75;;;4.13;69.76
1776;BME280;885;42.626;23.200;2023-04-06T11:16:16;155435.13;;;3.37;69.55
1776;BME280;885;42.626;23.200;2023-04-06T11:18:51;155832.94;;;3.49;69.18
1776;BME280;885;42.626;23.200;2023-04-06T11:21:19;157027.47;;;3.87;70.54
1776;BME280;885;42.626;23.200;2023-04-06T11:23:46;155506.81;;;3.65;68.28
1776;BME280;885;42.626;23.200;2023-04-06T11:26:13;156323.53;;;3.98;69.20
1776;BME280;885;42.626;23.200;2023-04-06T11:28:41;157133.53;;;4.28;69.46
1776;BME280;885;42.626;23.200;2023-04-06T11:31:10;157181.38;;;4.47;68.48
1776;BME280;885;42.626;23.200;2023-04-06T11:33:37;156818.75;;;4.48;68.12
1776;BME280;885;42.626;23.200;2023-04-06T11:36:05;155304.56;;;4.29;66.60
1776;BME280;885;42.626;23.200;2023-04-06T11:38:32;156093.59;;;4.51;67.42
1776;BME280;885;42.626;23.200;2023-04-06T11:41:01;154630.66;;;4.52;64.80
1776;BME280;885;42.626;23.200;2023-04-06T11:43:29;155711.78;;;4.45;68.91
1776;BME280;885;42.626;23.200;2023-04-06T11:46:00;155716.91;;;4.47;69.24
1776;BME280;885;42.626;23.200;2023-04-06T11:48:30;154094.34;;;3.85;70.06
1776;BME280;885;42.626;23.200;2023-04-06T11:50:57;152923.91;;;3.56;69.70
1776;BME280;885;42.626;23.200;2023-04-06T11:53:26;154480.56;;;3.93;71.13
1776;BME280;885;42.626;23.200;2023-04-06T11:55:53;153679.16;;;3.65;70.69
1776;BME280;885;42.626;23.200;2023-04-06T11:58:20;155642.59;;;4.18;71.52
1776;BME280;885;42.626;23.200;2023-04-06T12:00:47;153728.50;;;3.85;69.46
1776;BME280;885;42.626;23.200;2023-04-06T12:03:14;153334.91;;;3.74;70.32
1776;BME280;885;42.626;23.200;2023-04-06T12:05:43;153703.22;;;3.75;70.36
1776;BME280;885;42.626;23.200;2023-04-06T12:08:10;153695.59;;;3.72;71.30
1776;BME280;885;42.626;23.200;2023-04-06T12:10:37;154119.72;;;3.95;70.93
1776;BME280;885;42.626;23.200;2023-04-06T12:13:04;155304.56;;;4.29;70.36
1776;BME280;885;42.626;23.200;2023-04-06T12:15:30;155706.66;;;4.43;71.69
1776;BME280;885;42.626;23.200;2023-04-06T12:17:57;152984.28;;;3.80;68.96
1776;BME280;885;42.626;23.200;2023-04-06T12:20:24;153321.03;;;3.68;71.02
1776;BME280;885;42.626;23.200;2023-04-06T12:22:52;152548.28;;;3.52;70.62
1776;BME280;885;42.626;23.200;2023-04-06T12:25:19;152916.31;;;3.53;72.07
1776;BME280;885;42.626;23.200;2023-04-06T12:27:46;152946.53;;;3.65;71.17
1776;BME280;885;42.626;23.200;2023-04-06T12:30:13;152955.38;;;3.68;71.12
1776;BME280;885;42.626;23.200;2023-04-06T12:32:40;151363.38;;;3.16;71.21
1776;BME280;885;42.626;23.200;2023-04-06T12:35:08;152509.34;;;3.36;72.92
1776;BME280;885;42.626;23.200;2023-04-06T12:37:37;153324.81;;;3.70;71.72
1776;BME280;885;42.626;23.200;2023-04-06T12:40:06;154486.94;;;3.95;72.63
1776;BME280;885;42.626;23.200;2023-04-06T12:42:36;154165.34;;;4.13;70.54
1776;BME280;885;42.626;23.200;2023-04-06T12:45:03;154573.38;;;4.30;70.84
1776;BME280;885;42.626;23.200;2023-04-06T12:47:30;154241.50;;;4.43;68.71
1776;BME280;885;42.626;23.200;2023-04-06T12:49:57;153908.22;;;4.56;68.57
1776;BME280;885;42.626;23.200;2023-04-06T12:52:23;154283.38;;;4.60;68.58
1776;BME280;885;42.626;23.200;2023-04-06T12:54:50;154310.03;;;4.70;68.65
1776;BME280;885;42.626;23.200;2023-04-06T12:57:19;153918.34;;;4.60;69.36
1776;BME280;885;42.626;23.200;2023-04-06T12:59:46;154301.16;;;4.67;68.98
1776;BME280;885;42.626;23.200;2023-04-06T13:02:13;154320.16;;;4.74;69.86
1776;BME280;885;42.626;23.200;2023-04-06T13:04:40;154326.53;;;4.77;68.54
1776;BME280;885;42.626;23.200;2023-04-06T13:07:07;154345.56;;;4.84;68.84
1776;BME280;885;42.626;23.200;2023-04-06T13:09:34;154362.06;;;4.91;68.69
1776;BME280;885;42.626;23.200;2023-04-06T13:12:00;153246.25;;;4.84;67.55
1776;BME280;885;42.626;23.200;2023-04-06T13:14:29;152496.00;;;4.77;67.06